createdAt,value
2023-06-30T00:00:16.870Z,326.00
2023-06-30T00:01:16.977Z,323.00
2023-06-30T00:02:17.048Z,325.00
2023-06-30T00:03:17.157Z,324.00
2023-06-30T00:04:17.177Z,322.00
2023-06-30T00:05:17.230Z,320.00
2023-06-30T00:06:17.300Z,320.00
2023-06-30T00:07:17.465Z,320.00
2023-06-30T00:08:17.443Z,318.00
2023-06-30T00:09:17.527Z,319.00
2023-06-30T00:10:17.615Z,318.00
2023-06-30T00:11:17.686Z,318.00
2023-06-30T00:12:17.755Z,316.00
2023-06-30T00:13:17.825Z,313.00
2023-06-30T00:14:17.899Z,315.00
2023-06-30T00:15:17.996Z,315.00
2023-06-30T00:16:18.100Z,317.00
2023-06-30T00:17:18.142Z,320.00
2023-06-30T00:18:18.231Z,319.00
2023-06-30T00:19:18.309Z,315.00
2023-06-30T00:20:18.379Z,313.00
2023-06-30T00:21:18.459Z,316.00
2023-06-30T00:22:18.530Z,317.00
2023-06-30T00:23:18.603Z,317.00
2023-06-30T00:24:18.628Z,314.00
2023-06-30T00:25:18.684Z,316.00
2023-06-30T00:26:18.694Z,315.00
2023-06-30T00:27:18.717Z,316.00
2023-06-30T00:28:18.723Z,318.00
2023-06-30T00:29:18.758Z,319.00
2023-06-30T00:30:18.783Z,319.00
2023-06-30T00:31:18.834Z,320.00
2023-06-30T00:32:18.828Z,321.00
2023-06-30T00:33:18.853Z,320.00
2023-06-30T00:34:18.868Z,318.00
2023-06-30T00:35:18.929Z,316.00
2023-06-30T00:36:19.009Z,317.00
2023-06-30T00:37:19.086Z,315.00
2023-06-30T00:38:19.222Z,316.00
2023-06-30T00:39:19.283Z,317.00
2023-06-30T00:40:19.348Z,319.00
2023-06-30T00:41:19.434Z,320.00
2023-06-30T00:42:19.492Z,320.00
2023-06-30T00:43:19.577Z,321.00
2023-06-30T00:44:19.661Z,319.00
2023-06-30T00:45:19.737Z,320.00
2023-06-30T00:46:19.849Z,321.00
2023-06-30T00:47:19.971Z,321.00
2023-06-30T00:48:19.978Z,319.00
2023-06-30T00:49:20.079Z,317.00
2023-06-30T00:50:20.155Z,318.00
2023-06-30T00:51:20.282Z,319.00
2023-06-30T00:52:20.317Z,318.00
2023-06-30T00:53:20.412Z,319.00
2023-06-30T00:54:20.489Z,317.00
2023-06-30T00:55:20.589Z,315.00
2023-06-30T00:56:20.675Z,314.00
2023-06-30T00:57:20.769Z,315.00
2023-06-30T00:58:20.841Z,314.00
2023-06-30T00:59:20.917Z,314.00
2023-06-30T01:00:21.009Z,314.00
2023-06-30T01:01:21.121Z,314.00
2023-06-30T01:02:21.180Z,313.00
2023-06-30T01:03:21.415Z,313.00
2023-06-30T01:04:21.415Z,312.00
2023-06-30T01:05:21.463Z,313.00
2023-06-30T01:06:21.507Z,313.00
2023-06-30T01:07:21.658Z,314.00
2023-06-30T01:08:21.684Z,314.00
2023-06-30T01:09:21.783Z,313.00
2023-06-30T01:10:21.886Z,313.00
2023-06-30T01:11:21.929Z,312.00
2023-06-30T01:12:22.015Z,313.00
2023-06-30T01:13:22.106Z,313.00
2023-06-30T01:14:22.209Z,315.00
2023-06-30T01:15:22.260Z,315.00
2023-06-30T01:16:22.390Z,317.00
2023-06-30T01:17:22.461Z,317.00
2023-06-30T01:18:22.518Z,316.00
2023-06-30T01:19:22.608Z,316.00
2023-06-30T01:20:22.695Z,316.00
2023-06-30T01:21:22.767Z,318.00
2023-06-30T01:22:22.837Z,321.00
2023-06-30T01:23:22.943Z,319.00
2023-06-30T01:24:23.015Z,318.00
2023-06-30T01:25:23.100Z,316.00
2023-06-30T01:26:23.225Z,317.00
2023-06-30T01:27:23.283Z,318.00
2023-06-30T01:28:23.359Z,314.00
2023-06-30T01:29:23.477Z,312.00
2023-06-30T01:30:23.626Z,314.00
2023-06-30T01:31:23.616Z,315.00
2023-06-30T01:32:23.716Z,314.00
2023-06-30T01:33:23.789Z,319.00
2023-06-30T01:34:23.880Z,321.00
2023-06-30T01:35:23.978Z,324.00
2023-06-30T01:36:24.017Z,323.00
2023-06-30T01:37:24.105Z,324.00
2023-06-30T01:38:24.191Z,325.00
2023-06-30T01:39:24.263Z,322.00
2023-06-30T01:40:24.358Z,324.00
2023-06-30T01:41:24.418Z,324.00
2023-06-30T01:42:24.532Z,325.00
2023-06-30T01:43:24.578Z,324.00
2023-06-30T01:44:24.665Z,326.00
2023-06-30T01:45:24.770Z,328.00
2023-06-30T01:46:24.828Z,328.00
2023-06-30T01:47:24.919Z,326.00
2023-06-30T01:48:24.927Z,327.00
2023-06-30T01:49:24.960Z,326.00
2023-06-30T01:50:25.034Z,328.00
2023-06-30T01:51:25.108Z,329.00
2023-06-30T01:52:25.178Z,329.00
2023-06-30T01:53:25.228Z,326.00
2023-06-30T01:54:25.326Z,327.00
2023-06-30T01:55:25.418Z,328.00
2023-06-30T01:56:25.487Z,325.00
2023-06-30T01:57:25.578Z,324.00
2023-06-30T01:58:25.656Z,322.00
2023-06-30T01:59:25.752Z,322.00
2023-06-30T02:00:25.861Z,324.00
2023-06-30T02:01:25.946Z,324.00
2023-06-30T02:02:26.114Z,323.00
2023-06-30T02:03:26.184Z,327.00
2023-06-30T02:04:26.188Z,326.00
2023-06-30T02:05:26.267Z,326.00
2023-06-30T02:06:26.353Z,325.00
2023-06-30T02:07:26.457Z,326.00
2023-06-30T02:08:26.531Z,327.00
2023-06-30T02:09:38.863Z,328.00
2023-06-30T02:10:27.625Z,331.00
2023-06-30T02:11:26.659Z,328.00
2023-06-30T02:12:26.771Z,329.00
2023-06-30T02:13:26.796Z,330.00
2023-06-30T02:14:26.680Z,331.00
2023-06-30T02:15:26.812Z,332.00
2023-06-30T02:16:26.842Z,331.00
2023-06-30T02:17:26.830Z,332.00
2023-06-30T02:18:26.813Z,333.00
2023-06-30T02:19:26.823Z,330.00
2023-06-30T02:20:26.964Z,328.00
2023-06-30T02:21:27.001Z,329.00
2023-06-30T02:22:27.109Z,330.00
2023-06-30T02:23:27.167Z,329.00
2023-06-30T02:24:27.268Z,329.00
2023-06-30T02:25:27.347Z,329.00
2023-06-30T02:26:27.412Z,330.00
2023-06-30T02:27:28.201Z,332.00
2023-06-30T02:28:27.580Z,333.00
2023-06-30T02:29:27.705Z,333.00
2023-06-30T02:30:27.763Z,335.00
2023-06-30T02:31:27.908Z,334.00
2023-06-30T02:32:27.936Z,331.00
2023-06-30T02:33:28.036Z,333.00
2023-06-30T02:34:28.098Z,332.00
2023-06-30T02:35:28.286Z,332.00
2023-06-30T02:36:28.251Z,333.00
2023-06-30T02:37:28.351Z,330.00
2023-06-30T02:38:28.441Z,332.00
2023-06-30T02:39:28.536Z,331.00
2023-06-30T02:40:28.629Z,328.00
2023-06-30T02:41:28.693Z,328.00
2023-06-30T02:42:28.787Z,327.00
2023-06-30T02:43:28.856Z,328.00
2023-06-30T02:44:28.950Z,327.00
2023-06-30T02:45:29.047Z,327.00
2023-06-30T02:46:29.234Z,329.00
2023-06-30T02:47:29.244Z,328.00
2023-06-30T02:48:29.283Z,329.00
2023-06-30T02:49:30.485Z,331.00
2023-06-30T02:50:29.464Z,332.00
2023-06-30T02:51:29.570Z,335.00
2023-06-30T02:52:29.624Z,338.00
2023-06-30T02:53:29.702Z,339.00
2023-06-30T02:54:29.797Z,339.00
2023-06-30T02:55:29.920Z,341.00
2023-06-30T02:56:29.981Z,340.00
2023-06-30T02:57:30.081Z,337.00
2023-06-30T02:58:30.180Z,337.00
2023-06-30T02:59:30.234Z,338.00
2023-06-30T03:00:30.339Z,336.00
2023-06-30T03:01:30.493Z,337.00
2023-06-30T03:02:30.662Z,339.00
2023-06-30T03:03:30.651Z,337.00
2023-06-30T03:04:30.640Z,338.00
2023-06-30T03:05:30.766Z,338.00
2023-06-30T03:06:30.802Z,337.00
2023-06-30T03:07:30.966Z,337.00
2023-06-30T03:08:30.989Z,336.00
2023-06-30T03:09:31.068Z,334.00
2023-06-30T03:10:31.161Z,335.00
2023-06-30T03:11:31.236Z,335.00
2023-06-30T03:12:31.323Z,336.00
2023-06-30T03:13:31.389Z,337.00
2023-06-30T03:14:31.498Z,337.00
2023-06-30T03:15:31.577Z,337.00
2023-06-30T03:16:31.651Z,335.00
2023-06-30T03:17:31.810Z,335.00
2023-06-30T03:18:31.848Z,333.00
2023-06-30T03:19:31.925Z,334.00
2023-06-30T03:20:31.997Z,335.00
2023-06-30T03:21:32.084Z,335.00
2023-06-30T03:22:32.157Z,335.00
2023-06-30T03:23:32.237Z,333.00
2023-06-30T03:24:32.328Z,334.00
2023-06-30T03:25:32.389Z,331.00
2023-06-30T03:26:32.503Z,330.00
2023-06-30T03:27:32.547Z,332.00
2023-06-30T03:28:32.655Z,335.00
2023-06-30T03:29:32.711Z,335.00
2023-06-30T03:30:32.836Z,332.00
2023-06-30T03:31:32.949Z,334.00
2023-06-30T03:32:33.041Z,336.00
2023-06-30T03:33:33.071Z,335.00
2023-06-30T03:34:33.171Z,331.00
2023-06-30T03:35:33.272Z,328.00
2023-06-30T03:36:33.358Z,328.00
2023-06-30T03:37:33.454Z,329.00
2023-06-30T03:38:33.484Z,327.00
2023-06-30T03:39:33.552Z,326.00
2023-06-30T03:40:33.676Z,328.00
2023-06-30T03:41:33.698Z,327.00
2023-06-30T03:42:33.769Z,328.00
2023-06-30T03:43:33.861Z,328.00
2023-06-30T03:44:33.954Z,328.00
2023-06-30T03:45:34.078Z,326.00
2023-06-30T03:46:34.156Z,324.00
2023-06-30T03:47:34.252Z,325.00
2023-06-30T03:48:34.291Z,325.00
2023-06-30T03:49:34.389Z,325.00
2023-06-30T03:50:34.493Z,327.00
2023-06-30T03:51:34.554Z,327.00
2023-06-30T03:52:34.664Z,327.00
2023-06-30T03:53:35.508Z,328.00
2023-06-30T03:54:34.865Z,326.00
2023-06-30T03:55:34.936Z,326.00
2023-06-30T03:56:35.008Z,328.00
2023-06-30T03:57:35.125Z,327.00
2023-06-30T03:58:35.219Z,325.00
2023-06-30T03:59:35.265Z,328.00
2023-06-30T04:00:35.376Z,332.00
2023-06-30T04:01:35.536Z,331.00
2023-06-30T04:02:35.620Z,332.00
2023-06-30T04:03:35.820Z,335.00
2023-06-30T04:04:35.846Z,336.00
2023-06-30T04:05:35.806Z,336.00
2023-06-30T04:06:35.893Z,334.00
2023-06-30T04:07:36.091Z,333.00
2023-06-30T04:08:36.052Z,334.00
2023-06-30T04:09:36.138Z,334.00
2023-06-30T04:10:36.225Z,334.00
2023-06-30T04:11:36.344Z,333.00
2023-06-30T04:12:36.396Z,332.00
2023-06-30T04:13:36.489Z,332.00
2023-06-30T04:14:36.578Z,332.00
2023-06-30T04:15:36.688Z,331.00
2023-06-30T04:16:36.762Z,333.00
2023-06-30T04:17:36.942Z,330.00
2023-06-30T04:18:36.926Z,327.00
2023-06-30T04:19:37.017Z,326.00
2023-06-30T04:20:37.112Z,328.00
2023-06-30T04:21:37.182Z,330.00
2023-06-30T04:22:37.281Z,330.00
2023-06-30T04:23:37.370Z,333.00
2023-06-30T04:24:37.484Z,332.00
2023-06-30T04:25:37.546Z,331.00
2023-06-30T04:26:37.650Z,331.00
2023-06-30T04:27:37.670Z,328.00
2023-06-30T04:28:37.701Z,328.00
2023-06-30T04:29:37.722Z,331.00
2023-06-30T04:30:37.774Z,332.00
2023-06-30T04:31:37.811Z,331.00
2023-06-30T04:32:37.831Z,333.00
2023-06-30T04:33:37.817Z,333.00
2023-06-30T04:34:37.836Z,336.00
2023-06-30T04:35:37.942Z,334.00
2023-06-30T04:36:37.943Z,334.00
2023-06-30T04:37:38.047Z,335.00
2023-06-30T04:38:38.182Z,335.00
2023-06-30T04:39:38.227Z,333.00
2023-06-30T04:40:38.338Z,331.00
2023-06-30T04:41:38.433Z,334.00
2023-06-30T04:42:38.506Z,332.00
2023-06-30T04:43:38.586Z,332.00
2023-06-30T04:44:38.667Z,330.00
2023-06-30T04:45:38.772Z,329.00
2023-06-30T04:46:38.963Z,330.00
2023-06-30T04:47:38.953Z,330.00
2023-06-30T04:48:39.022Z,331.00
2023-06-30T04:49:39.107Z,328.00
2023-06-30T04:50:39.201Z,328.00
2023-06-30T04:51:39.258Z,327.00
2023-06-30T04:52:39.362Z,329.00
2023-06-30T04:53:39.433Z,329.00
2023-06-30T04:54:39.488Z,330.00
2023-06-30T04:55:39.558Z,330.00
2023-06-30T04:56:39.638Z,329.00
2023-06-30T04:57:39.715Z,330.00
2023-06-30T04:58:40.565Z,330.00
2023-06-30T04:59:39.887Z,331.00
2023-06-30T05:00:40.001Z,330.00
2023-06-30T05:01:40.103Z,329.00
2023-06-30T05:02:40.209Z,328.00
2023-06-30T05:03:40.318Z,329.00
2023-06-30T05:04:40.354Z,329.00
2023-06-30T05:05:40.436Z,329.00
2023-06-30T05:06:40.519Z,327.00
2023-06-30T05:07:40.732Z,328.00
2023-06-30T05:08:40.695Z,327.00
2023-06-30T05:09:40.785Z,330.00
2023-06-30T05:10:40.868Z,332.00
2023-06-30T05:11:40.946Z,330.00
2023-06-30T05:12:41.042Z,324.00
2023-06-30T05:13:41.136Z,327.00
2023-06-30T05:14:41.222Z,328.00
2023-06-30T05:15:41.442Z,331.00
2023-06-30T05:16:41.419Z,330.00
2023-06-30T05:17:41.474Z,330.00
2023-06-30T05:18:41.426Z,329.00
2023-06-30T05:19:41.400Z,331.00
2023-06-30T05:20:41.430Z,332.00
2023-06-30T05:21:42.045Z,331.00
2023-06-30T05:22:41.478Z,329.00
2023-06-30T05:23:41.514Z,328.00
2023-06-30T05:24:41.533Z,329.00
2023-06-30T05:25:41.574Z,331.00
2023-06-30T05:26:41.647Z,330.00
2023-06-30T05:27:41.736Z,331.00
2023-06-30T05:28:45.090Z,330.00
2023-06-30T05:29:42.831Z,330.00
2023-06-30T05:30:41.865Z,328.00
2023-06-30T05:31:41.908Z,328.00
2023-06-30T05:32:41.918Z,328.00
2023-06-30T05:33:41.898Z,328.00
2023-06-30T05:34:41.924Z,327.00
2023-06-30T05:35:42.167Z,328.00
2023-06-30T05:36:41.982Z,328.00
2023-06-30T05:37:41.989Z,334.00
2023-06-30T05:38:42.097Z,353.00
2023-06-30T05:39:42.039Z,369.00
2023-06-30T05:40:42.137Z,394.00
2023-06-30T05:41:42.078Z,428.00
2023-06-30T05:42:42.133Z,459.00
2023-06-30T05:43:42.120Z,531.00
2023-06-30T05:44:42.183Z,555.00
2023-06-30T05:45:42.301Z,573.00
2023-06-30T05:46:42.225Z,607.00
2023-06-30T05:47:42.253Z,631.00
2023-06-30T05:48:42.200Z,683.00
2023-06-30T05:49:42.221Z,685.00
2023-06-30T05:50:42.613Z,711.00
2023-06-30T05:51:42.341Z,744.00
2023-06-30T05:52:42.266Z,762.00
2023-06-30T05:53:42.315Z,784.00
2023-06-30T05:54:42.384Z,801.00
2023-06-30T05:55:42.786Z,805.00
2023-06-30T05:56:42.433Z,830.00
2023-06-30T05:57:42.469Z,840.00
2023-06-30T05:58:42.525Z,856.00
2023-06-30T05:59:42.606Z,869.00
2023-06-30T06:00:42.591Z,893.00
2023-06-30T06:01:42.631Z,906.00
2023-06-30T06:02:42.754Z,912.00
2023-06-30T06:03:42.895Z,941.00
2023-06-30T06:04:42.938Z,955.00
2023-06-30T06:05:42.851Z,957.00
2023-06-30T06:06:44.568Z,961.00
2023-06-30T06:07:43.088Z,965.00
2023-06-30T06:08:42.929Z,966.00
2023-06-30T06:09:43.057Z,984.00
2023-06-30T06:10:42.973Z,1027.00
2023-06-30T06:11:42.893Z,1027.00
2023-06-30T06:12:43.039Z,1036.00
2023-06-30T06:13:42.902Z,1047.00
2023-06-30T06:14:43.583Z,1062.00
2023-06-30T06:15:43.116Z,1061.00
2023-06-30T06:16:43.596Z,1063.00
2023-06-30T06:17:43.621Z,1015.00
2023-06-30T06:18:42.977Z,1025.00
2023-06-30T06:19:43.010Z,990.00
2023-06-30T06:20:42.989Z,969.00
2023-06-30T06:21:43.013Z,907.00
2023-06-30T06:22:42.995Z,946.00
2023-06-30T06:23:43.002Z,955.00
2023-06-30T06:24:43.050Z,956.00
2023-06-30T06:25:43.916Z,953.00
2023-06-30T06:26:43.075Z,949.00
2023-06-30T06:27:43.129Z,944.00
2023-06-30T06:28:43.097Z,938.00
2023-06-30T06:29:43.102Z,924.00
2023-06-30T06:30:43.215Z,857.00
2023-06-30T06:31:43.142Z,858.00
2023-06-30T06:32:43.226Z,891.00
2023-06-30T06:33:43.183Z,909.00
2023-06-30T06:34:43.199Z,915.00
2023-06-30T06:35:43.434Z,923.00
2023-06-30T06:36:43.224Z,934.00
2023-06-30T06:37:43.224Z,942.00
2023-06-30T06:38:43.248Z,931.00
2023-06-30T06:39:43.257Z,932.00
2023-06-30T06:40:43.308Z,931.00
2023-06-30T06:41:43.353Z,936.00
2023-06-30T06:42:43.284Z,859.00
2023-06-30T06:43:43.300Z,790.00
2023-06-30T06:44:43.313Z,745.00
2023-06-30T06:45:43.486Z,738.00
2023-06-30T06:46:43.660Z,721.00
2023-06-30T06:47:43.455Z,718.00
2023-06-30T06:48:43.525Z,711.00
2023-06-30T06:49:46.809Z,709.00
2023-06-30T06:50:43.567Z,708.00
2023-06-30T06:51:44.367Z,705.00
2023-06-30T06:52:43.609Z,692.00
2023-06-30T06:53:43.605Z,676.00
2023-06-30T06:54:43.606Z,667.00
2023-06-30T06:55:43.926Z,661.00
2023-06-30T06:56:43.630Z,647.00
2023-06-30T06:57:43.628Z,634.00
2023-06-30T06:58:43.639Z,564.00
2023-06-30T06:59:43.696Z,548.00
2023-06-30T07:00:43.762Z,542.00
2023-06-30T07:01:43.718Z,539.00
2023-06-30T07:02:43.680Z,528.00
2023-06-30T07:03:43.728Z,517.00
2023-06-30T07:04:43.739Z,490.00
2023-06-30T07:05:44.139Z,487.00
2023-06-30T07:06:43.761Z,486.00
2023-06-30T07:07:43.910Z,486.00
2023-06-30T07:08:43.789Z,482.00
2023-06-30T07:09:43.791Z,480.00
2023-06-30T07:10:43.795Z,474.00
2023-06-30T07:11:43.829Z,473.00
2023-06-30T07:12:43.828Z,470.00
2023-06-30T07:13:43.914Z,465.00
2023-06-30T07:14:45.831Z,461.00
2023-06-30T07:15:44.111Z,459.00
2023-06-30T07:16:44.041Z,460.00
2023-06-30T07:17:43.949Z,459.00
2023-06-30T07:18:43.904Z,460.00
2023-06-30T07:19:43.925Z,460.00
2023-06-30T07:20:43.909Z,461.00
2023-06-30T07:21:43.953Z,461.00
2023-06-30T07:22:43.939Z,463.00
2023-06-30T07:23:43.983Z,463.00
2023-06-30T07:24:44.320Z,462.00
2023-06-30T07:25:44.471Z,463.00
2023-06-30T07:26:43.989Z,463.00
2023-06-30T07:27:44.041Z,463.00
2023-06-30T07:28:44.068Z,462.00
2023-06-30T07:29:44.026Z,461.00
2023-06-30T07:30:44.169Z,462.00
2023-06-30T07:31:44.129Z,460.00
2023-06-30T07:32:44.102Z,463.00
2023-06-30T07:33:44.100Z,460.00
2023-06-30T07:34:44.181Z,464.00
2023-06-30T07:35:44.745Z,475.00
2023-06-30T07:36:44.218Z,480.00
2023-06-30T07:37:44.179Z,507.00
2023-06-30T07:38:44.278Z,513.00
2023-06-30T07:39:44.202Z,403.00
2023-06-30T07:41:44.235Z,344.00
2023-06-30T07:42:44.281Z,347.00
2023-06-30T07:43:44.285Z,349.00
2023-06-30T07:44:44.288Z,345.00
2023-06-30T07:45:44.697Z,341.00
2023-06-30T07:46:44.363Z,337.00
2023-06-30T07:47:44.529Z,348.00
2023-06-30T07:48:44.543Z,350.00
2023-06-30T07:49:44.472Z,342.00
2023-06-30T07:50:54.475Z,335.00
2023-06-30T07:51:45.564Z,333.00
2023-06-30T07:52:44.563Z,330.00
2023-06-30T07:53:45.594Z,327.00
2023-06-30T07:54:44.634Z,326.00
2023-06-30T07:55:44.876Z,325.00
2023-06-30T07:56:44.712Z,324.00
2023-06-30T07:57:44.891Z,323.00
2023-06-30T07:58:44.811Z,375.00
2023-06-30T07:59:44.914Z,384.00
2023-06-30T08:00:44.929Z,435.00
2023-06-30T08:01:44.933Z,443.00
2023-06-30T08:02:45.128Z,442.00
2023-06-30T08:03:45.280Z,443.00
2023-06-30T08:04:45.434Z,452.00
2023-06-30T08:05:46.122Z,511.00
2023-06-30T08:06:45.295Z,558.00
2023-06-30T08:07:49.157Z,623.00
2023-06-30T08:08:46.451Z,702.00
2023-06-30T08:09:45.443Z,703.00
2023-06-30T08:10:45.488Z,702.00
2023-06-30T08:11:45.504Z,715.00
2023-06-30T08:12:45.522Z,749.00
2023-06-30T08:13:45.552Z,750.00
2023-06-30T08:14:45.561Z,741.00
2023-06-30T08:15:48.833Z,737.00
2023-06-30T08:16:45.639Z,739.00
2023-06-30T08:17:52.067Z,751.00
2023-06-30T08:18:51.410Z,753.00
2023-06-30T08:19:49.317Z,762.00
2023-06-30T08:20:45.687Z,766.00
2023-06-30T08:21:45.723Z,817.00
2023-06-30T08:22:47.129Z,822.00
2023-06-30T08:23:45.707Z,826.00
2023-06-30T08:24:45.734Z,813.00
2023-06-30T08:25:45.980Z,805.00
2023-06-30T08:26:45.768Z,799.00
2023-06-30T08:27:45.779Z,797.00
2023-06-30T08:28:45.779Z,800.00
2023-06-30T08:29:45.804Z,809.00
2023-06-30T08:30:45.856Z,837.00
2023-06-30T08:31:45.839Z,838.00
2023-06-30T08:32:45.966Z,739.00
2023-06-30T08:33:45.998Z,738.00
2023-06-30T08:34:46.117Z,651.00
2023-06-30T08:35:46.309Z,642.00
2023-06-30T08:36:46.205Z,629.00
2023-06-30T08:37:47.047Z,604.00
2023-06-30T08:38:46.372Z,590.00
2023-06-30T08:39:46.448Z,575.00
2023-06-30T08:40:46.519Z,561.00
2023-06-30T08:41:46.627Z,552.00
2023-06-30T08:42:46.710Z,544.00
2023-06-30T08:43:46.751Z,538.00
2023-06-30T08:44:46.798Z,532.00
2023-06-30T08:45:47.182Z,529.00
2023-06-30T08:46:46.917Z,519.00
2023-06-30T08:47:47.086Z,506.00
2023-06-30T08:48:47.038Z,497.00
2023-06-30T08:49:47.076Z,483.00
2023-06-30T08:50:47.150Z,477.00
2023-06-30T08:51:47.188Z,465.00
2023-06-30T08:52:47.257Z,457.00
2023-06-30T08:53:47.290Z,452.00
2023-06-30T08:54:47.362Z,442.00
2023-06-30T08:55:47.546Z,438.00
2023-06-30T08:56:47.356Z,431.00
2023-06-30T08:57:47.396Z,415.00
2023-06-30T08:58:47.405Z,407.00
2023-06-30T08:59:47.446Z,398.00
2023-06-30T09:00:47.567Z,386.00
2023-06-30T09:01:47.571Z,382.00
2023-06-30T09:02:47.643Z,378.00
2023-06-30T09:03:47.702Z,373.00
2023-06-30T09:04:47.665Z,373.00
2023-06-30T09:05:47.993Z,369.00
2023-06-30T09:06:47.719Z,365.00
2023-06-30T09:07:47.912Z,363.00
2023-06-30T09:08:47.755Z,359.00
2023-06-30T09:09:47.820Z,360.00
2023-06-30T09:10:47.809Z,359.00
2023-06-30T09:11:47.818Z,358.00
2023-06-30T09:12:47.892Z,356.00
2023-06-30T09:13:47.839Z,358.00
2023-06-30T09:14:49.008Z,356.00
2023-06-30T09:15:48.075Z,353.00
2023-06-30T09:16:47.898Z,349.00
2023-06-30T09:17:47.997Z,348.00
2023-06-30T09:18:47.914Z,347.00
2023-06-30T09:19:47.925Z,345.00
2023-06-30T09:20:47.986Z,344.00
2023-06-30T09:21:48.031Z,343.00
2023-06-30T09:22:53.719Z,342.00
2023-06-30T09:23:49.216Z,341.00
2023-06-30T09:24:48.137Z,340.00
2023-06-30T09:25:48.440Z,340.00
2023-06-30T09:26:48.169Z,338.00
2023-06-30T09:27:48.199Z,338.00
2023-06-30T09:28:48.197Z,338.00
2023-06-30T09:29:48.208Z,339.00
2023-06-30T09:30:48.404Z,339.00
2023-06-30T09:31:48.270Z,340.00
2023-06-30T09:32:48.361Z,345.00
2023-06-30T09:33:48.284Z,354.00
2023-06-30T09:34:48.324Z,352.00
2023-06-30T09:35:49.074Z,353.00
2023-06-30T09:36:48.374Z,352.00
2023-06-30T09:37:48.383Z,347.00
2023-06-30T09:38:48.396Z,348.00
2023-06-30T09:39:48.439Z,348.00
2023-06-30T09:40:48.537Z,346.00
2023-06-30T09:41:48.447Z,345.00
2023-06-30T09:42:48.553Z,343.00
2023-06-30T09:43:48.486Z,346.00
2023-06-30T09:44:48.498Z,350.00
2023-06-30T09:45:49.195Z,353.00
2023-06-30T09:46:48.539Z,360.00
2023-06-30T09:47:48.628Z,370.00
2023-06-30T09:48:48.576Z,408.00
2023-06-30T09:49:48.613Z,422.00
2023-06-30T09:50:48.631Z,433.00
2023-06-30T09:51:48.609Z,463.00
2023-06-30T09:52:48.650Z,470.00
2023-06-30T09:53:48.766Z,476.00
2023-06-30T09:54:48.824Z,477.00
2023-06-30T09:55:48.912Z,478.00
2023-06-30T09:56:48.973Z,481.00
2023-06-30T09:57:48.986Z,486.00
2023-06-30T09:58:49.654Z,490.00
2023-06-30T09:59:48.995Z,497.00
2023-06-30T10:00:49.018Z,505.00
2023-06-30T10:01:49.133Z,514.00
2023-06-30T10:02:49.069Z,519.00
2023-06-30T10:03:49.103Z,521.00
2023-06-30T10:04:49.092Z,524.00
2023-06-30T10:05:49.712Z,526.00
2023-06-30T10:06:49.100Z,528.00
2023-06-30T10:07:49.107Z,532.00
2023-06-30T10:08:49.167Z,534.00
2023-06-30T10:09:49.141Z,535.00
2023-06-30T10:10:49.203Z,536.00
2023-06-30T10:11:49.171Z,537.00
2023-06-30T10:12:49.243Z,537.00
2023-06-30T10:13:49.330Z,540.00
2023-06-30T10:14:49.380Z,540.00
2023-06-30T10:15:49.874Z,544.00
2023-06-30T10:16:49.671Z,547.00
2023-06-30T10:17:49.686Z,553.00
2023-06-30T10:18:49.682Z,556.00
2023-06-30T10:19:49.750Z,557.00
2023-06-30T10:20:50.507Z,559.00
2023-06-30T10:21:49.885Z,566.00
2023-06-30T10:22:49.961Z,571.00
2023-06-30T10:23:50.075Z,575.00
2023-06-30T10:24:50.105Z,579.00
2023-06-30T10:25:50.680Z,582.00
2023-06-30T10:26:50.142Z,583.00
2023-06-30T10:27:50.151Z,586.00
2023-06-30T10:28:50.196Z,589.00
2023-06-30T10:29:50.183Z,593.00
2023-06-30T10:30:50.220Z,596.00
2023-06-30T10:31:50.331Z,597.00
2023-06-30T10:32:50.319Z,598.00
2023-06-30T10:33:50.320Z,600.00
2023-06-30T10:34:50.273Z,604.00
2023-06-30T10:35:50.295Z,603.00
2023-06-30T10:36:50.355Z,605.00
2023-06-30T10:37:50.365Z,605.00
2023-06-30T10:38:50.434Z,605.00
2023-06-30T10:39:50.506Z,603.00
2023-06-30T10:40:50.576Z,602.00
2023-06-30T10:41:50.641Z,607.00
2023-06-30T10:42:50.682Z,612.00
2023-06-30T10:43:50.753Z,613.00
2023-06-30T10:44:50.823Z,607.00
2023-06-30T10:45:50.863Z,606.00
2023-06-30T10:46:50.927Z,602.00
2023-06-30T10:47:51.022Z,601.00
2023-06-30T10:48:51.072Z,598.00
2023-06-30T10:49:51.129Z,599.00
2023-06-30T10:50:51.138Z,599.00
2023-06-30T10:51:51.160Z,596.00
2023-06-30T10:52:51.172Z,593.00
2023-06-30T10:53:51.174Z,588.00
2023-06-30T10:54:51.353Z,588.00
2023-06-30T10:55:51.434Z,587.00
2023-06-30T10:56:51.250Z,586.00
2023-06-30T10:57:51.249Z,587.00
2023-06-30T10:58:51.269Z,584.00
2023-06-30T10:59:51.285Z,584.00
2023-06-30T11:00:51.294Z,584.00
2023-06-30T11:01:51.306Z,582.00
2023-06-30T11:02:51.478Z,583.00
2023-06-30T11:04:51.403Z,584.00
2023-06-30T11:05:51.366Z,584.00
2023-06-30T11:06:51.417Z,582.00
2023-06-30T11:07:51.403Z,582.00
2023-06-30T11:08:51.409Z,582.00
2023-06-30T11:09:51.404Z,581.00
2023-06-30T11:10:51.508Z,581.00
2023-06-30T11:11:51.643Z,579.00
2023-06-30T11:12:51.587Z,580.00
2023-06-30T11:13:51.653Z,578.00
2023-06-30T11:14:51.662Z,580.00
2023-06-30T11:15:54.331Z,581.00
2023-06-30T11:16:51.691Z,577.00
2023-06-30T11:17:51.804Z,573.00
2023-06-30T11:18:51.887Z,574.00
2023-06-30T11:19:51.755Z,572.00
2023-06-30T11:20:51.762Z,574.00
2023-06-30T11:21:51.765Z,572.00
2023-06-30T11:22:51.860Z,575.00
2023-06-30T11:23:51.802Z,572.00
2023-06-30T11:24:51.811Z,571.00
2023-06-30T11:25:51.839Z,572.00
2023-06-30T11:26:51.888Z,572.00
2023-06-30T11:27:51.876Z,573.00
2023-06-30T11:28:51.941Z,572.00
2023-06-30T11:29:51.978Z,569.00
2023-06-30T11:30:52.028Z,574.00
2023-06-30T11:31:51.983Z,581.00
2023-06-30T11:32:52.022Z,584.00
2023-06-30T11:33:52.000Z,583.00
2023-06-30T11:34:52.044Z,588.00
2023-06-30T11:35:52.034Z,589.00
2023-06-30T11:36:52.094Z,594.00
2023-06-30T11:37:52.064Z,599.00
2023-06-30T11:38:52.079Z,596.00
2023-06-30T11:39:52.105Z,592.00
2023-06-30T11:40:52.107Z,590.00
2023-06-30T11:41:52.110Z,594.00
2023-06-30T11:42:52.135Z,595.00
2023-06-30T11:43:52.144Z,596.00
2023-06-30T11:44:52.183Z,595.00
2023-06-30T11:45:52.183Z,599.00
2023-06-30T11:46:54.464Z,603.00
2023-06-30T11:47:52.274Z,605.00
2023-06-30T11:48:52.242Z,610.00
2023-06-30T11:49:52.225Z,609.00
2023-06-30T11:50:52.259Z,611.00
2023-06-30T11:51:52.257Z,611.00
2023-06-30T11:52:52.287Z,610.00
2023-06-30T11:53:52.283Z,609.00
2023-06-30T11:54:52.292Z,609.00
2023-06-30T11:55:52.305Z,608.00
2023-06-30T11:56:52.328Z,608.00
2023-06-30T11:57:52.338Z,605.00
2023-06-30T11:58:52.403Z,606.00
2023-06-30T11:59:52.345Z,605.00
2023-06-30T12:00:52.375Z,608.00
2023-06-30T12:01:52.368Z,609.00
2023-06-30T12:02:52.900Z,611.00
2023-06-30T12:03:52.474Z,612.00
2023-06-30T12:04:52.441Z,614.00
2023-06-30T12:05:52.486Z,615.00
2023-06-30T12:06:52.466Z,616.00
2023-06-30T12:07:54.337Z,617.00
2023-06-30T12:08:52.471Z,620.00
2023-06-30T12:09:52.463Z,619.00
2023-06-30T12:10:52.494Z,617.00
2023-06-30T12:11:52.480Z,617.00
2023-06-30T12:12:52.503Z,614.00
2023-06-30T12:13:52.496Z,606.00
2023-06-30T12:14:52.508Z,586.00
2023-06-30T12:15:52.548Z,575.00
2023-06-30T12:16:52.563Z,575.00
2023-06-30T12:17:52.590Z,571.00
2023-06-30T12:18:52.672Z,564.00
2023-06-30T12:19:52.579Z,559.00
2023-06-30T12:20:52.639Z,560.00
2023-06-30T12:21:52.631Z,556.00
2023-06-30T12:22:52.626Z,553.00
2023-06-30T12:23:52.646Z,550.00
2023-06-30T12:24:52.664Z,547.00
2023-06-30T12:25:52.680Z,548.00
2023-06-30T12:26:53.207Z,547.00
2023-06-30T12:27:52.721Z,542.00
2023-06-30T12:28:52.742Z,539.00
2023-06-30T12:29:52.735Z,541.00
2023-06-30T12:30:52.728Z,539.00